sensor_id;sensor_type;location;lat;lon;timestamp;pressure;altitude;pressure_sealevel;temperature;humidity
40730;BME280;26418;50.070;8.436;2024-02-26T11:24:43;98444.25;;;16.74;86.13
40730;BME280;26418;50.070;8.436;2024-02-26T11:27:10;98438.75;;;17.22;82.54
40730;BME280;26418;50.070;8.436;2024-02-26T11:47:55;98471.50;;;15.30;57.88
40730;BME280;26418;50.070;8.436;2024-02-26T11:50:39;98472.06;;;13.80;61.39
40730;BME280;26418;50.070;8.436;2024-02-26T11:53:25;98475.84;;;12.72;66.63
40730;BME280;26418;50.070;8.436;2024-02-26T11:56:30;98483.66;;;11.73;71.45
40730;BME280;26418;50.070;8.436;2024-02-26T11:59:10;98460.44;;;11.06;76.50
40730;BME280;26418;50.070;8.436;2024-02-26T12:04:27;98477.59;;;10.73;80.88
40730;BME280;26418;50.070;8.436;2024-02-26T12:07:03;98474.28;;;10.55;80.98
40730;BME280;26418;50.070;8.436;2024-02-26T12:09:36;98477.78;;;10.22;81.50
40730;BME280;26418;50.070;8.436;2024-02-26T12:12:04;98486.25;;;9.99;82.66
40730;BME280;26418;50.070;8.436;2024-02-26T12:14:33;98491.81;;;9.82;84.13
40730;BME280;26418;50.070;8.436;2024-02-26T12:16:59;98487.47;;;9.68;86.66
40730;BME280;26418;50.070;8.436;2024-02-26T12:19:25;98496.22;;;9.65;87.67
40730;BME280;26418;50.070;8.436;2024-02-26T12:21:53;98497.69;;;9.63;87.96
40730;BME280;26418;50.070;8.436;2024-02-26T12:24:24;98499.00;;;9.78;88.07
40730;BME280;26418;50.070;8.436;2024-02-26T12:26:50;98505.31;;;9.82;86.87
40730;BME280;26418;50.070;8.436;2024-02-26T12:29:19;98497.22;;;9.60;86.73
40730;BME280;26418;50.070;8.436;2024-02-26T12:31:47;98514.47;;;9.68;88.30
40730;BME280;26418;50.070;8.436;2024-02-26T12:34:13;98514.91;;;9.70;88.60
40730;BME280;26418;50.070;8.436;2024-02-26T12:36:39;98509.25;;;9.63;87.62
40730;BME280;26418;50.070;8.436;2024-02-26T12:39:05;98507.66;;;9.62;89.03
40730;BME280;26418;50.070;8.436;2024-02-26T12:41:32;98511.91;;;9.72;89.52
40730;BME280;26418;50.070;8.436;2024-02-26T12:44:04;98509.00;;;9.77;88.80
40730;BME280;26418;50.070;8.436;2024-02-26T12:46:32;98506.56;;;9.84;87.77
40730;BME280;26418;50.070;8.436;2024-02-26T12:49:07;98503.19;;;9.87;89.08
40730;BME280;26418;50.070;8.436;2024-02-26T12:51:39;98504.69;;;9.97;89.21
40730;BME280;26418;50.070;8.436;2024-02-26T12:54:12;98510.47;;;10.08;88.62
40730;BME280;26418;50.070;8.436;2024-02-26T12:56:38;98507.84;;;10.20;88.45
40730;BME280;26418;50.070;8.436;2024-02-26T12:59:04;98515.34;;;10.15;86.82
40730;BME280;26418;50.070;8.436;2024-02-26T13:01:30;98506.06;;;10.03;86.42
40730;BME280;26418;50.070;8.436;2024-02-26T13:03:56;98521.84;;;10.01;87.74
40730;BME280;26418;50.070;8.436;2024-02-26T13:06:31;98515.00;;;9.83;87.14
40730;BME280;26418;50.070;8.436;2024-02-26T13:08:57;98523.13;;;9.95;87.49
40730;BME280;26418;50.070;8.436;2024-02-26T13:11:27;98523.13;;;9.95;86.90
40730;BME280;26418;50.070;8.436;2024-02-26T13:13:54;98521.59;;;9.94;87.63
40730;BME280;26418;50.070;8.436;2024-02-26T13:16:23;98530.94;;;9.97;86.58
40730;BME280;26418;50.070;8.436;2024-02-26T13:18:49;98533.63;;;9.97;87.40
40730;BME280;26418;50.070;8.436;2024-02-26T13:21:15;98537.56;;;9.99;87.43
40730;BME280;26418;50.070;8.436;2024-02-26T13:23:43;98546.78;;;9.98;87.82
40730;BME280;26418;50.070;8.436;2024-02-26T13:26:12;98539.91;;;9.88;87.85
40730;BME280;26418;50.070;8.436;2024-02-26T13:28:41;98545.72;;;9.90;87.72
40730;BME280;26418;50.070;8.436;2024-02-26T13:31:08;98546.19;;;9.93;88.08
40730;BME280;26418;50.070;8.436;2024-02-26T13:33:46;98547.31;;;9.70;88.84
40730;BME280;26418;50.070;8.436;2024-02-26T13:36:11;98560.44;;;9.81;87.88
40730;BME280;26418;50.070;8.436;2024-02-26T13:38:53;98551.84;;;9.79;89.20
40730;BME280;26418;50.070;8.436;2024-02-26T13:41:20;98555.16;;;9.84;88.97
40730;BME280;26418;50.070;8.436;2024-02-26T13:43:46;98552.84;;;9.95;88.56
40730;BME280;26418;50.070;8.436;2024-02-26T13:46:12;98555.56;;;9.95;88.02
40730;BME280;26418;50.070;8.436;2024-02-26T13:48:39;98555.88;;;9.94;87.86
40730;BME280;26418;50.070;8.436;2024-02-26T13:51:05;98571.34;;;9.84;88.13
40730;BME280;26418;50.070;8.436;2024-02-26T13:53:30;98564.06;;;9.64;88.69
40730;BME280;26418;50.070;8.436;2024-02-26T13:55:56;98568.00;;;9.66;89.20
40730;BME280;26418;50.070;8.436;2024-02-26T13:58:24;98575.03;;;9.80;89.21
40730;BME280;26418;50.070;8.436;2024-02-26T14:00:50;98574.44;;;9.74;88.86
40730;BME280;26418;50.070;8.436;2024-02-26T14:03:16;98562.97;;;9.56;89.40
40730;BME280;26418;50.070;8.436;2024-02-26T14:05:42;98572.44;;;9.62;90.03
40730;BME280;26418;50.070;8.436;2024-02-26T14:08:07;98569.63;;;9.58;90.24
40730;BME280;26418;50.070;8.436;2024-02-26T14:10:36;98569.34;;;9.51;90.13
40730;BME280;26418;50.070;8.436;2024-02-26T14:13:03;98570.47;;;9.50;90.52
40730;BME280;26418;50.070;8.436;2024-02-26T14:15:28;98562.13;;;9.64;89.07
40730;BME280;26418;50.070;8.436;2024-02-26T14:17:55;98564.09;;;9.76;89.01
40730;BME280;26418;50.070;8.436;2024-02-26T14:20:24;98558.78;;;9.88;88.61
40730;BME280;26418;50.070;8.436;2024-02-26T14:22:53;98568.25;;;9.73;89.34
40730;BME280;26418;50.070;8.436;2024-02-26T14:25:21;98565.56;;;9.95;92.29
40730;BME280;26418;50.070;8.436;2024-02-26T14:27:47;98571.97;;;10.11;89.22
40730;BME280;26418;50.070;8.436;2024-02-26T14:30:13;98564.97;;;10.10;87.35
40730;BME280;26418;50.070;8.436;2024-02-26T14:32:40;98580.84;;;10.12;87.97
40730;BME280;26418;50.070;8.436;2024-02-26T14:35:06;98571.06;;;10.07;87.78
40730;BME280;26418;50.070;8.436;2024-02-26T14:37:32;98576.38;;;9.95;87.42
40730;BME280;26418;50.070;8.436;2024-02-26T14:39:58;98575.31;;;9.87;88.43
40730;BME280;26418;50.070;8.436;2024-02-26T14:42:24;98574.63;;;9.99;87.81
40730;BME280;26418;50.070;8.436;2024-02-26T14:44:52;98585.72;;;9.97;87.20
40730;BME280;26418;50.070;8.436;2024-02-26T14:47:21;98581.66;;;9.91;87.38
40730;BME280;26418;50.070;8.436;2024-02-26T14:49:46;98585.19;;;9.83;87.57
40730;BME280;26418;50.070;8.436;2024-02-26T14:52:14;98582.22;;;9.75;87.82
40730;BME280;26418;50.070;8.436;2024-02-26T14:54:48;98584.25;;;9.79;88.60
40730;BME280;26418;50.070;8.436;2024-02-26T14:57:19;98591.59;;;9.78;88.60
40730;BME280;26418;50.070;8.436;2024-02-26T14:59:45;98584.53;;;9.65;88.89
40730;BME280;26418;50.070;8.436;2024-02-26T15:34:55;98588.50;;;9.28;89.28
40730;BME280;26418;50.070;8.436;2024-02-26T15:37:24;98615.13;;;9.39;89.47
40730;BME280;26418;50.070;8.436;2024-02-26T15:39:55;98616.56;;;9.36;89.08
40730;BME280;26418;50.070;8.436;2024-02-26T15:42:21;98620.69;;;9.34;89.11
40730;BME280;26418;50.070;8.436;2024-02-26T15:44:46;98589.56;;;9.06;89.52
40730;BME280;26418;50.070;8.436;2024-02-26T15:47:18;98603.66;;;9.12;89.89
40730;BME280;26418;50.070;8.436;2024-02-26T15:49:43;98597.28;;;9.17;89.68
40730;BME280;26418;50.070;8.436;2024-02-26T15:52:09;98602.84;;;9.20;89.64
40730;BME280;26418;50.070;8.436;2024-02-26T15:54:57;98640.78;;;9.54;89.45
40730;BME280;26418;50.070;8.436;2024-02-26T15:57:23;98629.53;;;9.52;88.74
40730;BME280;26418;50.070;8.436;2024-02-26T15:59:48;98623.53;;;9.46;88.46
40730;BME280;26418;50.070;8.436;2024-02-26T16:02:16;98609.28;;;9.37;88.47
40730;BME280;26418;50.070;8.436;2024-02-26T16:04:42;98652.69;;;9.53;88.34
40730;BME280;26418;50.070;8.436;2024-02-26T16:07:09;98632.59;;;9.41;88.67
40730;BME280;26418;50.070;8.436;2024-02-26T16:12:18;98624.91;;;9.13;88.66
40730;BME280;26418;50.070;8.436;2024-02-26T16:14:52;98648.06;;;9.15;89.28
40730;BME280;26418;50.070;8.436;2024-02-26T16:17:23;98674.41;;;9.18;89.41
40730;BME280;26418;50.070;8.436;2024-02-26T16:19:51;98659.53;;;9.03;90.33
40730;BME280;26418;50.070;8.436;2024-02-26T16:22:16;98689.16;;;9.11;90.70
40730;BME280;26418;50.070;8.436;2024-02-26T16:24:42;98675.41;;;8.95;90.86
40730;BME280;26418;50.070;8.436;2024-02-26T16:27:16;98703.28;;;9.17;90.83
40730;BME280;26418;50.070;8.436;2024-02-26T16:29:42;98701.25;;;9.14;91.25
40730;BME280;26418;50.070;8.436;2024-02-26T16:34:37;98716.63;;;9.13;91.72
40730;BME280;26418;50.070;8.436;2024-02-26T16:37:09;98709.47;;;9.18;91.01
40730;BME280;26418;50.070;8.436;2024-02-26T16:39:37;98716.75;;;9.17;90.86
40730;BME280;26418;50.070;8.436;2024-02-26T16:42:06;98713.59;;;9.15;91.34
40730;BME280;26418;50.070;8.436;2024-02-26T16:44:39;98716.13;;;9.11;91.32
40730;BME280;26418;50.070;8.436;2024-02-26T16:47:05;98712.81;;;9.15;91.20
40730;BME280;26418;50.070;8.436;2024-02-26T16:49:34;98713.63;;;9.06;91.45
40730;BME280;26418;50.070;8.436;2024-02-26T16:52:03;98716.63;;;9.05;92.04
40730;BME280;26418;50.070;8.436;2024-02-26T16:54:31;98718.81;;;9.11;91.76
40730;BME280;26418;50.070;8.436;2024-02-26T16:56:56;98726.63;;;9.13;91.44
40730;BME280;26418;50.070;8.436;2024-02-26T16:59:25;98728.84;;;9.11;91.77
40730;BME280;26418;50.070;8.436;2024-02-26T17:01:54;98733.44;;;9.10;91.55
40730;BME280;26418;50.070;8.436;2024-02-26T17:04:21;98729.47;;;9.08;93.26
40730;BME280;26418;50.070;8.436;2024-02-26T17:06:46;98740.91;;;9.05;92.32
40730;BME280;26418;50.070;8.436;2024-02-26T17:09:12;98742.34;;;9.02;92.15
40730;BME280;26418;50.070;8.436;2024-02-26T17:11:37;98738.22;;;8.96;92.65
40730;BME280;26418;50.070;8.436;2024-02-26T17:14:08;98749.63;;;9.02;92.39
40730;BME280;26418;50.070;8.436;2024-02-26T17:16:34;98744.41;;;8.96;92.31
40730;BME280;26418;50.070;8.436;2024-02-26T17:19:01;98749.66;;;8.93;92.27
40730;BME280;26418;50.070;8.436;2024-02-26T17:21:30;98757.09;;;8.96;92.24
40730;BME280;26418;50.070;8.436;2024-02-26T17:23:55;98762.50;;;8.87;92.47
40730;BME280;26418;50.070;8.436;2024-02-26T17:26:27;98766.59;;;8.93;92.80
40730;BME280;26418;50.070;8.436;2024-02-26T17:28:54;98781.53;;;8.91;92.32
40730;BME280;26418;50.070;8.436;2024-02-26T17:31:21;98779.44;;;8.88;92.76
40730;BME280;26418;50.070;8.436;2024-02-26T17:33:48;98782.16;;;8.88;92.72
40730;BME280;26418;50.070;8.436;2024-02-26T17:36:15;98798.16;;;8.84;92.75
40730;BME280;26418;50.070;8.436;2024-02-26T17:38:41;98796.13;;;8.81;92.92
40730;BME280;26418;50.070;8.436;2024-02-26T17:41:08;98793.56;;;8.76;93.00
40730;BME280;26418;50.070;8.436;2024-02-26T17:43:37;98806.09;;;8.80;93.18
40730;BME280;26418;50.070;8.436;2024-02-26T17:46:05;98806.41;;;8.79;92.46
40730;BME280;26418;50.070;8.436;2024-02-26T17:48:32;98805.94;;;8.77;92.80
40730;BME280;26418;50.070;8.436;2024-02-26T17:50:58;98805.94;;;8.77;92.22
40730;BME280;26418;50.070;8.436;2024-02-26T17:53:23;98805.00;;;8.81;92.19
40730;BME280;26418;50.070;8.436;2024-02-26T17:55:49;98812.47;;;8.85;91.76
40730;BME280;26418;50.070;8.436;2024-02-26T17:58:18;98818.47;;;8.81;91.88
40730;BME280;26418;50.070;8.436;2024-02-26T18:00:47;98804.03;;;8.69;91.68
40730;BME280;26418;50.070;8.436;2024-02-26T18:03:13;98810.53;;;8.76;91.47
40730;BME280;26418;50.070;8.436;2024-02-26T18:05:39;98810.72;;;8.80;90.72
40730;BME280;26418;50.070;8.436;2024-02-26T18:08:07;98823.53;;;8.83;90.32
40730;BME280;26418;50.070;8.436;2024-02-26T18:10:32;98821.16;;;8.81;90.38
40730;BME280;26418;50.070;8.436;2024-02-26T18:12:58;98822.75;;;8.83;89.99
40730;BME280;26418;50.070;8.436;2024-02-26T18:15:27;98827.50;;;8.86;89.16
40730;BME280;26418;50.070;8.436;2024-02-26T18:17:55;98820.69;;;8.88;88.70
40730;BME280;26418;50.070;8.436;2024-02-26T18:20:21;98826.09;;;8.88;88.79
40730;BME280;26418;50.070;8.436;2024-02-26T18:22:47;98831.16;;;8.90;88.36
40730;BME280;26418;50.070;8.436;2024-02-26T18:25:13;98842.44;;;8.92;88.16
40730;BME280;26418;50.070;8.436;2024-02-26T18:27:39;98838.47;;;8.89;88.11
40730;BME280;26418;50.070;8.436;2024-02-26T18:30:07;98831.78;;;8.78;87.83
40730;BME280;26418;50.070;8.436;2024-02-26T18:32:33;98846.56;;;8.89;87.60
40730;BME280;26418;50.070;8.436;2024-02-26T18:34:59;98846.22;;;8.82;87.70
40730;BME280;26418;50.070;8.436;2024-02-26T18:37:25;98857.47;;;8.84;87.67
40730;BME280;26418;50.070;8.436;2024-02-26T18:39:51;98856.22;;;8.81;87.58
40730;BME280;26418;50.070;8.436;2024-02-26T18:42:16;98856.06;;;8.78;87.95
40730;BME280;26418;50.070;8.436;2024-02-26T18:44:44;98871.41;;;8.77;88.11
40730;BME280;26418;50.070;8.436;2024-02-26T18:47:09;98865.69;;;8.70;88.22
40730;BME280;26418;50.070;8.436;2024-02-26T18:49:38;98870.13;;;8.66;89.12
40730;BME280;26418;50.070;8.436;2024-02-26T18:52:04;98883.94;;;8.64;89.47
40730;BME280;26418;50.070;8.436;2024-02-26T18:54:32;98886.75;;;8.59;89.37
40730;BME280;26418;50.070;8.436;2024-02-26T18:56:58;98889.78;;;8.58;89.65
40730;BME280;26418;50.070;8.436;2024-02-26T18:59:24;98895.00;;;8.54;89.21
40730;BME280;26418;50.070;8.436;2024-02-26T19:01:49;98901.00;;;8.51;89.60
40730;BME280;26418;50.070;8.436;2024-02-26T19:04:15;98904.78;;;8.50;89.71
40730;BME280;26418;50.070;8.436;2024-02-26T19:06:44;98904.91;;;8.45;89.85
40730;BME280;26418;50.070;8.436;2024-02-26T19:09:09;98902.84;;;8.42;89.68
40730;BME280;26418;50.070;8.436;2024-02-26T19:11:35;98908.13;;;8.47;89.26
40730;BME280;26418;50.070;8.436;2024-02-26T19:14:01;98920.66;;;8.52;88.54
40730;BME280;26418;50.070;8.436;2024-02-26T19:16:27;98917.13;;;8.42;88.45
40730;BME280;26418;50.070;8.436;2024-02-26T19:18:54;98926.16;;;8.46;88.31
40730;BME280;26418;50.070;8.436;2024-02-26T19:21:19;98930.31;;;8.53;87.70
40730;BME280;26418;50.070;8.436;2024-02-26T19:23:48;98936.09;;;8.60;87.08
40730;BME280;26418;50.070;8.436;2024-02-26T19:26:13;98937.19;;;8.59;86.82
40730;BME280;26418;50.070;8.436;2024-02-26T19:28:39;98941.75;;;8.58;86.59
40730;BME280;26418;50.070;8.436;2024-02-26T19:31:10;98941.41;;;8.51;86.68
40730;BME280;26418;50.070;8.436;2024-02-26T19:33:43;98932.38;;;8.47;86.93
40730;BME280;26418;50.070;8.436;2024-02-26T19:36:09;98947.63;;;8.52;86.62
40730;BME280;26418;50.070;8.436;2024-02-26T19:38:34;98949.31;;;8.47;86.13
40730;BME280;26418;50.070;8.436;2024-02-26T19:41:00;98953.31;;;8.50;86.13
40730;BME280;26418;50.070;8.436;2024-02-26T19:43:26;98950.00;;;8.53;85.62
40730;BME280;26418;50.070;8.436;2024-02-26T19:45:54;98955.78;;;8.46;85.25
40730;BME280;26418;50.070;8.436;2024-02-26T19:48:20;98950.72;;;8.45;85.22
40730;BME280;26418;50.070;8.436;2024-02-26T19:50:48;98955.28;;;8.44;85.38
40730;BME280;26418;50.070;8.436;2024-02-26T19:53:14;98961.63;;;8.40;85.29
40730;BME280;26418;50.070;8.436;2024-02-26T19:55:40;98969.09;;;8.43;85.37
40730;BME280;26418;50.070;8.436;2024-02-26T19:58:05;98965.06;;;8.31;85.02
40730;BME280;26418;50.070;8.436;2024-02-26T20:00:31;98973.53;;;8.39;85.01
40730;BME280;26418;50.070;8.436;2024-02-26T20:02:57;98982.22;;;8.36;84.87
40730;BME280;26418;50.070;8.436;2024-02-26T20:05:25;98984.13;;;8.35;84.70
40730;BME280;26418;50.070;8.436;2024-02-26T20:07:51;98975.22;;;8.34;84.71
40730;BME280;26418;50.070;8.436;2024-02-26T20:10:17;98985.66;;;8.27;84.99
40730;BME280;26418;50.070;8.436;2024-02-26T20:12:43;98992.13;;;8.26;85.23
40730;BME280;26418;50.070;8.436;2024-02-26T20:15:08;98993.06;;;8.22;85.45
40730;BME280;26418;50.070;8.436;2024-02-26T20:17:34;99001.50;;;8.29;85.16
40730;BME280;26418;50.070;8.436;2024-02-26T20:19:59;99007.81;;;8.24;84.80
40730;BME280;26418;50.070;8.436;2024-02-26T20:22:25;99018.22;;;8.17;85.17
40730;BME280;26418;50.070;8.436;2024-02-26T20:24:51;99009.78;;;8.10;85.51
40730;BME280;26418;50.070;8.436;2024-02-26T20:27:20;99027.53;;;8.11;85.81
40730;BME280;26418;50.070;8.436;2024-02-26T20:29:46;99029.41;;;8.10;86.41
40730;BME280;26418;50.070;8.436;2024-02-26T20:32:12;99035.59;;;8.11;85.99
40730;BME280;26418;50.070;8.436;2024-02-26T20:34:38;99028.75;;;8.05;86.10
40730;BME280;26418;50.070;8.436;2024-02-26T20:37:11;99044.41;;;8.02;86.31
40730;BME280;26418;50.070;8.436;2024-02-26T20:39:37;99048.97;;;8.02;86.51
40730;BME280;26418;50.070;8.436;2024-02-26T20:42:05;99043.13;;;8.00;86.92
40730;BME280;26418;50.070;8.436;2024-02-26T20:44:32;99053.59;;;8.01;86.32
40730;BME280;26418;50.070;8.436;2024-02-26T20:46:58;99056.28;;;8.01;86.24
40730;BME280;26418;50.070;8.436;2024-02-26T20:49:27;99058.66;;;8.03;86.59
40730;BME280;26418;50.070;8.436;2024-02-26T20:51:53;99059.66;;;8.07;86.58
40730;BME280;26418;50.070;8.436;2024-02-26T20:54:19;99067.31;;;8.14;86.44
40730;BME280;26418;50.070;8.436;2024-02-26T20:56:45;99077.78;;;8.15;86.05
40730;BME280;26418;50.070;8.436;2024-02-26T20:59:11;99071.59;;;8.15;85.88
40730;BME280;26418;50.070;8.436;2024-02-26T21:01:37;99082.44;;;8.24;85.35
40730;BME280;26418;50.070;8.436;2024-02-26T21:04:08;99092.53;;;8.18;85.20
40730;BME280;26418;50.070;8.436;2024-02-26T21:06:34;99096.63;;;8.15;85.55
40730;BME280;26418;50.070;8.436;2024-02-26T21:09:01;99099.81;;;8.17;85.72
40730;BME280;26418;50.070;8.436;2024-02-26T21:11:27;99103.63;;;8.16;85.77
40730;BME280;26418;50.070;8.436;2024-02-26T21:13:52;99106.59;;;8.15;85.71
40730;BME280;26418;50.070;8.436;2024-02-26T21:16:18;99112.78;;;8.15;85.86
40730;BME280;26418;50.070;8.436;2024-02-26T21:18:44;99113.16;;;8.23;84.71
40730;BME280;26418;50.070;8.436;2024-02-26T21:21:10;99121.75;;;8.25;83.62
40730;BME280;26418;50.070;8.436;2024-02-26T21:23:39;99120.47;;;8.22;83.52
40730;BME280;26418;50.070;8.436;2024-02-26T21:26:05;99125.03;;;8.22;82.82
40730;BME280;26418;50.070;8.436;2024-02-26T21:28:35;99117.56;;;8.18;81.89
40730;BME280;26418;50.070;8.436;2024-02-26T21:31:02;99130.19;;;8.32;81.59
40730;BME280;26418;50.070;8.436;2024-02-26T21:33:30;99124.00;;;8.31;81.14
40730;BME280;26418;50.070;8.436;2024-02-26T21:35:56;99133.69;;;8.32;80.69
40730;BME280;26418;50.070;8.436;2024-02-26T21:38:22;99128.78;;;8.34;79.99
40730;BME280;26418;50.070;8.436;2024-02-26T21:40:47;99140.97;;;8.32;80.24
40730;BME280;26418;50.070;8.436;2024-02-26T21:43:13;99127.53;;;8.18;80.55
40730;BME280;26418;50.070;8.436;2024-02-26T21:45:39;99153.94;;;8.30;79.83
40730;BME280;26418;50.070;8.436;2024-02-26T21:48:08;99151.38;;;8.25;80.11
40730;BME280;26418;50.070;8.436;2024-02-26T21:50:34;99165.44;;;8.22;80.12
40730;BME280;26418;50.070;8.436;2024-02-26T21:53:00;99155.25;;;8.18;80.50
40730;BME280;26418;50.070;8.436;2024-02-26T21:55:26;99169.44;;;8.24;79.76
40730;BME280;26418;50.070;8.436;2024-02-26T21:57:54;99162.66;;;8.27;79.55
40730;BME280;26418;50.070;8.436;2024-02-26T22:00:20;99167.91;;;8.32;79.33
40730;BME280;26418;50.070;8.436;2024-02-26T22:02:46;99174.22;;;8.27;78.96
40730;BME280;26418;50.070;8.436;2024-02-26T22:05:12;99169.19;;;8.34;78.58
40730;BME280;26418;50.070;8.436;2024-02-26T22:07:39;99187.75;;;8.36;78.82
40730;BME280;26418;50.070;8.436;2024-02-26T22:10:06;99193.13;;;8.36;78.59
40730;BME280;26418;50.070;8.436;2024-02-26T22:12:32;99182.88;;;8.38;79.17
40730;BME280;26418;50.070;8.436;2024-02-26T22:15:00;99188.06;;;8.34;78.80
40730;BME280;26418;50.070;8.436;2024-02-26T22:17:28;99186.28;;;8.30;78.47
40730;BME280;26418;50.070;8.436;2024-02-26T22:19:55;99189.66;;;8.36;77.75
40730;BME280;26418;50.070;8.436;2024-02-26T22:22:20;99201.22;;;8.36;77.91
40730;BME280;26418;50.070;8.436;2024-02-26T22:24:46;99195.84;;;8.36;77.69
40730;BME280;26418;50.070;8.436;2024-02-26T22:27:11;99198.06;;;8.34;78.16
40730;BME280;26418;50.070;8.436;2024-02-26T22:29:37;99196.75;;;8.31;78.41
40730;BME280;26418;50.070;8.436;2024-02-26T22:32:03;99192.75;;;8.29;78.61
40730;BME280;26418;50.070;8.436;2024-02-26T22:34:28;99199.66;;;8.35;78.29
40730;BME280;26418;50.070;8.436;2024-02-26T22:36:54;99205.63;;;8.32;78.46
40730;BME280;26418;50.070;8.436;2024-02-26T22:39:20;99208.34;;;8.32;78.77
40730;BME280;26418;50.070;8.436;2024-02-26T22:41:47;99211.81;;;8.32;78.38
40730;BME280;26418;50.070;8.436;2024-02-26T22:44:12;99219.88;;;8.32;78.82
40730;BME280;26418;50.070;8.436;2024-02-26T22:46:38;99227.00;;;8.28;79.12
40730;BME280;26418;50.070;8.436;2024-02-26T22:49:03;99228.41;;;8.26;79.27
40730;BME280;26418;50.070;8.436;2024-02-26T22:51:29;99219.31;;;8.22;79.66
40730;BME280;26418;50.070;8.436;2024-02-26T22:53:54;99231.69;;;8.23;79.79
40730;BME280;26418;50.070;8.436;2024-02-26T22:56:20;99228.00;;;8.18;80.35
40730;BME280;26418;50.070;8.436;2024-02-26T22:58:46;99228.41;;;8.12;80.59
40730;BME280;26418;50.070;8.436;2024-02-26T23:01:11;99245.88;;;8.14;80.81
40730;BME280;26418;50.070;8.436;2024-02-26T23:03:36;99238.38;;;8.11;81.14
40730;BME280;26418;50.070;8.436;2024-02-26T23:06:02;99247.84;;;8.09;81.74
40730;BME280;26418;50.070;8.436;2024-02-26T23:08:30;99258.75;;;8.03;82.12
40730;BME280;26418;50.070;8.436;2024-02-26T23:10:56;99259.13;;;7.97;82.61
40730;BME280;26418;50.070;8.436;2024-02-26T23:13:22;99268.63;;;8.08;83.27
40730;BME280;26418;50.070;8.436;2024-02-26T23:15:49;99264.22;;;8.12;82.98
40730;BME280;26418;50.070;8.436;2024-02-26T23:18:18;99265.22;;;8.02;83.21
40730;BME280;26418;50.070;8.436;2024-02-26T23:20:48;99255.66;;;7.96;84.01
40730;BME280;26418;50.070;8.436;2024-02-26T23:23:14;99269.91;;;7.97;84.06
40730;BME280;26418;50.070;8.436;2024-02-26T23:25:39;99271.38;;;7.89;84.79
40730;BME280;26418;50.070;8.436;2024-02-26T23:28:09;99278.47;;;7.85;85.38
40730;BME280;26418;50.070;8.436;2024-02-26T23:30:36;99283.25;;;7.74;86.38
40730;BME280;26418;50.070;8.436;2024-02-26T23:33:02;99282.03;;;7.66;87.09
40730;BME280;26418;50.070;8.436;2024-02-26T23:35:28;99289.91;;;7.63;87.69
40730;BME280;26418;50.070;8.436;2024-02-26T23:37:53;99290.72;;;7.63;87.88
40730;BME280;26418;50.070;8.436;2024-02-26T23:40:19;99280.03;;;7.58;88.42
40730;BME280;26418;50.070;8.436;2024-02-26T23:42:44;99284.63;;;7.58;88.41
40730;BME280;26418;50.070;8.436;2024-02-26T23:45:10;99283.31;;;7.55;89.16
40730;BME280;26418;50.070;8.436;2024-02-26T23:47:36;99271.03;;;7.49;89.59
40730;BME280;26418;50.070;8.436;2024-02-26T23:50:02;99276.72;;;7.47;90.28
40730;BME280;26418;50.070;8.436;2024-02-26T23:52:28;99281.06;;;7.43;90.79
40730;BME280;26418;50.070;8.436;2024-02-26T23:54:53;99280.09;;;7.39;91.36
40730;BME280;26418;50.070;8.436;2024-02-26T23:57:19;99277.41;;;7.39;91.73
40730;BME280;26418;50.070;8.436;2024-02-26T23:59:47;99267.69;;;7.24;92.24
